createdAt,value
2023-01-28T00:00:27.508Z,1.94
2023-01-28T00:01:27.431Z,1.92
2023-01-28T00:02:27.454Z,1.92
2023-01-28T00:03:27.342Z,1.94
2023-01-28T00:04:27.259Z,1.95
2023-01-28T00:05:27.189Z,1.92
2023-01-28T00:06:27.142Z,1.87
2023-01-28T00:07:27.071Z,1.92
2023-01-28T00:08:27.016Z,1.92
2023-01-28T00:09:26.967Z,1.94
2023-01-28T00:10:26.896Z,1.95
2023-01-28T00:11:26.860Z,1.99
2023-01-28T00:12:26.804Z,1.94
2023-01-28T00:13:26.714Z,1.91
2023-01-28T00:14:26.654Z,2.00
2023-01-28T00:15:26.597Z,1.94
2023-01-28T00:16:26.585Z,1.88
2023-01-28T00:17:26.487Z,1.92
2023-01-28T00:18:26.418Z,1.92
2023-01-28T00:19:26.368Z,1.92
2023-01-28T00:20:26.328Z,1.91
2023-01-28T00:21:26.268Z,1.95
2023-01-28T00:22:26.218Z,1.95
2023-01-28T00:23:26.164Z,1.95
2023-01-28T00:24:26.189Z,1.95
2023-01-28T00:25:26.061Z,2.02
2023-01-28T00:26:26.288Z,2.08
2023-01-28T00:27:26.472Z,1.97
2023-01-28T00:28:25.969Z,2.04
2023-01-28T00:29:25.783Z,2.08
2023-01-28T00:30:25.739Z,1.91
2023-01-28T00:31:25.734Z,1.97
2023-01-28T00:32:25.608Z,2.02
2023-01-28T00:33:25.556Z,1.97
2023-01-28T00:34:25.493Z,1.97
2023-01-28T00:35:25.426Z,1.94
2023-01-28T00:36:25.376Z,1.92
2023-01-28T00:37:25.308Z,1.88
2023-01-28T00:38:25.254Z,1.92
2023-01-28T00:39:25.198Z,1.94
2023-01-28T00:40:25.136Z,1.94
2023-01-28T00:41:25.097Z,1.95
2023-01-28T00:42:25.015Z,1.99
2023-01-28T00:43:24.962Z,1.91
2023-01-28T00:44:24.953Z,1.97
2023-01-28T00:45:24.844Z,1.99
2023-01-28T00:46:24.815Z,1.91
2023-01-28T00:47:24.735Z,1.99
2023-01-28T00:48:24.656Z,1.95
2023-01-28T00:49:24.597Z,1.97
2023-01-28T00:50:24.571Z,2.06
2023-01-28T00:51:24.493Z,1.95
2023-01-28T00:52:24.432Z,2.00
2023-01-28T00:53:24.361Z,1.95
2023-01-28T00:54:24.314Z,2.04
2023-01-28T00:55:24.251Z,2.04
2023-01-28T00:56:24.218Z,2.10
2023-01-28T00:57:24.126Z,2.04
2023-01-28T00:58:24.069Z,1.92
2023-01-28T00:59:24.015Z,2.02
2023-01-28T01:00:23.959Z,2.08
2023-01-28T01:01:23.930Z,2.00
2023-01-28T01:02:23.884Z,2.08
2023-01-28T01:03:23.774Z,1.95
2023-01-28T01:04:23.715Z,1.94
2023-01-28T01:05:23.673Z,1.92
2023-01-28T01:06:23.597Z,1.94
2023-01-28T01:07:23.535Z,2.02
2023-01-28T01:08:23.524Z,1.94
2023-01-28T01:09:23.426Z,2.14
2023-01-28T01:10:23.359Z,1.97
2023-01-28T01:11:23.314Z,2.04
2023-01-28T01:12:23.279Z,2.02
2023-01-28T01:13:23.208Z,1.97
2023-01-28T01:14:23.158Z,2.10
2023-01-28T01:15:23.073Z,2.04
2023-01-28T01:16:23.006Z,1.99
2023-01-28T01:17:22.955Z,2.13
2023-01-28T01:18:22.890Z,2.04
2023-01-28T01:19:22.839Z,2.06
2023-01-28T01:20:22.806Z,2.07
2023-01-28T01:21:22.719Z,2.08
2023-01-28T01:22:22.663Z,2.11
2023-01-28T01:23:22.595Z,2.14
2023-01-28T01:24:22.581Z,2.04
2023-01-28T01:25:22.485Z,2.08
2023-01-28T01:26:22.473Z,2.07
2023-01-28T01:27:22.368Z,2.14
2023-01-28T01:28:22.303Z,2.11
2023-01-28T01:29:22.252Z,2.06
2023-01-28T01:30:22.183Z,2.10
2023-01-28T01:31:22.222Z,2.08
2023-01-28T01:32:22.111Z,2.07
2023-01-28T01:33:22.008Z,2.07
2023-01-28T01:34:21.958Z,2.08
2023-01-28T01:35:21.888Z,2.11
2023-01-28T01:36:22.009Z,2.14
2023-01-28T01:37:21.786Z,2.08
2023-01-28T01:38:21.733Z,2.06
2023-01-28T01:39:21.658Z,2.06
2023-01-28T01:40:21.602Z,2.13
2023-01-28T01:41:21.536Z,2.10
2023-01-28T01:42:21.478Z,2.10
2023-01-28T01:43:21.451Z,2.07
2023-01-28T01:44:21.364Z,2.11
2023-01-28T01:45:21.305Z,1.99
2023-01-28T01:46:21.303Z,2.08
2023-01-28T01:47:21.199Z,2.04
2023-01-28T01:48:21.124Z,2.02
2023-01-28T01:49:21.124Z,2.02
2023-01-28T01:50:21.025Z,1.99
2023-01-28T01:51:20.960Z,1.97
2023-01-28T01:52:20.890Z,2.02
2023-01-28T01:53:20.829Z,1.99
2023-01-28T01:54:20.768Z,1.99
2023-01-28T01:55:20.751Z,1.95
2023-01-28T01:56:20.655Z,2.10
2023-01-28T01:57:20.595Z,1.94
2023-01-28T01:58:20.547Z,1.95
2023-01-28T01:59:20.482Z,1.94
2023-01-28T02:00:20.418Z,1.91
2023-01-28T02:01:20.391Z,1.94
2023-01-28T02:02:20.398Z,1.94
2023-01-28T02:03:20.269Z,1.95
2023-01-28T02:04:20.199Z,1.94
2023-01-28T02:05:20.134Z,1.95
2023-01-28T02:06:20.072Z,1.97
2023-01-28T02:07:20.192Z,1.91
2023-01-28T02:08:19.947Z,1.91
2023-01-28T02:09:19.888Z,1.99
2023-01-28T02:10:19.836Z,1.99
2023-01-28T02:11:19.769Z,1.95
2023-01-28T02:12:19.719Z,1.95
2023-01-28T02:13:19.681Z,1.91
2023-01-28T02:14:30.636Z,1.92
2023-01-28T02:15:19.538Z,1.94
2023-01-28T02:16:19.500Z,1.89
2023-01-28T02:17:19.414Z,1.81
2023-01-28T02:18:19.366Z,1.92
2023-01-28T02:19:19.340Z,1.85
2023-01-28T02:20:19.243Z,1.94
2023-01-28T02:21:19.186Z,1.84
2023-01-28T02:22:19.131Z,1.88
2023-01-28T02:23:19.072Z,1.95
2023-01-28T02:24:19.037Z,1.81
2023-01-28T02:25:18.991Z,1.89
2023-01-28T02:26:18.892Z,1.92
2023-01-28T02:27:18.833Z,1.97
2023-01-28T02:28:18.781Z,1.94
2023-01-28T02:29:18.727Z,1.95
2023-01-28T02:30:18.656Z,1.99
2023-01-28T02:31:18.677Z,1.87
2023-01-28T02:32:18.537Z,1.87
2023-01-28T02:33:18.475Z,1.87
2023-01-28T02:34:18.415Z,1.81
2023-01-28T02:35:18.369Z,1.81
2023-01-28T02:36:18.291Z,1.89
2023-01-28T02:37:18.261Z,1.85
2023-01-28T02:38:18.176Z,1.91
2023-01-28T02:39:18.109Z,1.94
2023-01-28T02:40:18.057Z,1.94
2023-01-28T02:41:17.991Z,1.77
2023-01-28T02:42:17.943Z,1.84
2023-01-28T02:43:17.891Z,1.85
2023-01-28T02:44:17.821Z,1.85
2023-01-28T02:45:17.766Z,1.81
2023-01-28T02:46:17.736Z,1.87
2023-01-28T02:47:17.663Z,1.77
2023-01-28T02:48:17.612Z,1.77
2023-01-28T02:49:17.535Z,1.78
2023-01-28T02:50:17.476Z,1.74
2023-01-28T02:51:17.403Z,1.73
2023-01-28T02:52:17.362Z,1.77
2023-01-28T02:53:17.281Z,1.70
2023-01-28T02:54:17.256Z,1.77
2023-01-28T02:55:17.391Z,1.74
2023-01-28T02:56:17.103Z,1.73
2023-01-28T02:57:17.051Z,1.73
2023-01-28T02:58:16.990Z,1.78
2023-01-28T02:59:16.935Z,1.71
2023-01-28T03:00:16.905Z,1.78
2023-01-28T03:01:16.845Z,1.68
2023-01-28T03:02:16.827Z,1.76
2023-01-28T03:03:16.687Z,1.85
2023-01-28T03:04:16.628Z,1.84
2023-01-28T03:05:16.851Z,1.77
2023-01-28T03:06:16.526Z,1.76
2023-01-28T03:07:16.446Z,1.80
2023-01-28T03:08:16.389Z,1.81
2023-01-28T03:09:16.329Z,1.76
2023-01-28T03:10:16.372Z,1.77
2023-01-28T03:11:16.253Z,1.77
2023-01-28T03:12:16.161Z,1.78
2023-01-28T03:13:16.101Z,1.77
2023-01-28T03:14:16.032Z,1.80
2023-01-28T03:15:16.370Z,1.73
2023-01-28T03:16:15.960Z,1.68
2023-01-28T03:17:15.907Z,1.67
2023-01-28T03:18:15.805Z,1.60
2023-01-28T03:19:15.862Z,1.55
2023-01-28T03:20:15.686Z,1.71
2023-01-28T03:21:15.624Z,1.73
2023-01-28T03:22:15.562Z,1.71
2023-01-28T03:23:15.535Z,1.77
2023-01-28T03:24:15.454Z,1.74
2023-01-28T03:25:15.817Z,1.74
2023-01-28T03:26:15.316Z,1.70
2023-01-28T03:27:15.267Z,1.73
2023-01-28T03:28:15.208Z,1.81
2023-01-28T03:29:15.180Z,1.78
2023-01-28T03:30:15.082Z,1.68
2023-01-28T03:31:15.047Z,1.78
2023-01-28T03:32:15.045Z,1.67
2023-01-28T03:33:14.910Z,1.68
2023-01-28T03:34:14.843Z,1.71
2023-01-28T03:35:15.069Z,1.74
2023-01-28T03:36:14.732Z,1.71
2023-01-28T03:37:14.697Z,1.67
2023-01-28T03:38:14.666Z,1.66
2023-01-28T03:39:14.553Z,1.58
2023-01-28T03:40:14.495Z,1.59
2023-01-28T03:41:14.431Z,1.55
2023-01-28T03:42:14.382Z,1.60
2023-01-28T03:43:14.329Z,1.58
2023-01-28T03:44:14.261Z,1.56
2023-01-28T03:45:14.519Z,1.59
2023-01-28T03:46:14.182Z,1.59
2023-01-28T03:47:14.114Z,1.53
2023-01-28T03:48:14.015Z,1.60
2023-01-28T03:49:13.958Z,1.60
2023-01-28T03:50:13.915Z,1.56
2023-01-28T03:51:13.854Z,1.56
2023-01-28T03:52:13.809Z,1.67
2023-01-28T03:53:16.383Z,1.58
2023-01-28T03:54:13.664Z,1.62
2023-01-28T03:55:14.274Z,1.60
2023-01-28T03:56:13.533Z,1.58
2023-01-28T03:57:13.490Z,1.56
2023-01-28T03:58:13.423Z,1.62
2023-01-28T03:59:13.367Z,1.55
2023-01-28T04:00:13.317Z,1.58
2023-01-28T04:01:13.257Z,1.60
2023-01-28T04:02:13.182Z,1.55
2023-01-28T04:03:13.155Z,1.63
2023-01-28T04:04:13.057Z,1.56
2023-01-28T04:05:13.460Z,1.63
2023-01-28T04:06:12.946Z,1.56
2023-01-28T04:07:12.879Z,1.52
2023-01-28T04:08:12.828Z,1.58
2023-01-28T04:09:12.765Z,1.58
2023-01-28T04:10:12.700Z,1.58
2023-01-28T04:11:12.668Z,1.60
2023-01-28T04:12:12.585Z,1.63
2023-01-28T04:13:13.598Z,1.56
2023-01-28T04:14:12.462Z,1.56
2023-01-28T04:15:12.724Z,1.63
2023-01-28T04:16:12.398Z,1.58
2023-01-28T04:17:12.292Z,1.59
2023-01-28T04:18:12.240Z,1.58
2023-01-28T04:19:12.165Z,1.53
2023-01-28T04:20:12.102Z,1.55
2023-01-28T04:21:12.044Z,1.59
2023-01-28T04:22:11.976Z,1.55
2023-01-28T04:23:11.928Z,1.56
2023-01-28T04:24:11.902Z,1.59
2023-01-28T04:25:11.795Z,1.60
2023-01-28T04:26:11.738Z,1.62
2023-01-28T04:27:11.695Z,1.62
2023-01-28T04:28:11.617Z,1.59
2023-01-28T04:29:11.554Z,1.55
2023-01-28T04:30:11.515Z,1.56
2023-01-28T04:31:11.479Z,1.56
2023-01-28T04:32:11.817Z,1.56
2023-01-28T04:33:11.324Z,1.56
2023-01-28T04:34:11.278Z,1.62
2023-01-28T04:35:11.206Z,1.60
2023-01-28T04:36:11.136Z,1.55
2023-01-28T04:37:11.095Z,1.42
2023-01-28T04:38:11.040Z,1.53
2023-01-28T04:39:10.973Z,1.45
2023-01-28T04:40:10.914Z,1.44
2023-01-28T04:41:10.852Z,1.49
2023-01-28T04:42:10.805Z,1.53
2023-01-28T04:43:10.716Z,1.37
2023-01-28T04:44:10.667Z,1.34
2023-01-28T04:45:10.612Z,1.38
2023-01-28T04:46:10.573Z,1.28
2023-01-28T04:47:10.500Z,1.32
2023-01-28T04:48:10.446Z,1.24
2023-01-28T04:49:10.368Z,1.37
2023-01-28T04:50:10.311Z,1.26
2023-01-28T04:51:10.261Z,1.34
2023-01-28T04:52:10.216Z,1.31
2023-01-28T04:53:10.115Z,1.31
2023-01-28T04:54:10.061Z,1.30
2023-01-28T04:55:10.036Z,1.31
2023-01-28T04:56:09.960Z,1.34
2023-01-28T04:57:09.876Z,1.38
2023-01-28T04:58:09.847Z,1.35
2023-01-28T04:59:09.762Z,1.37
2023-01-28T05:00:09.698Z,1.35
2023-01-28T05:01:09.739Z,1.31
2023-01-28T05:02:09.633Z,1.32
2023-01-28T05:03:09.542Z,1.30
2023-01-28T05:04:09.455Z,1.31
2023-01-28T05:05:09.437Z,1.34
2023-01-28T05:06:09.359Z,1.30
2023-01-28T05:07:09.282Z,1.32
2023-01-28T05:08:09.227Z,1.32
2023-01-28T05:09:09.162Z,1.32
2023-01-28T05:10:09.116Z,1.35
2023-01-28T05:11:09.043Z,1.34
2023-01-28T05:12:08.998Z,1.32
2023-01-28T05:13:08.936Z,1.31
2023-01-28T05:14:08.875Z,1.24
2023-01-28T05:15:08.801Z,1.26
2023-01-28T05:16:08.744Z,1.26
2023-01-28T05:17:08.748Z,1.24
2023-01-28T05:18:08.632Z,1.30
2023-01-28T05:19:08.568Z,1.28
2023-01-28T05:20:08.503Z,1.26
2023-01-28T05:21:08.434Z,1.26
2023-01-28T05:22:08.384Z,1.26
2023-01-28T05:23:08.345Z,1.26
2023-01-28T05:24:08.307Z,1.26
2023-01-28T05:25:08.192Z,1.16
2023-01-28T05:26:08.153Z,1.20
2023-01-28T05:27:08.095Z,1.17
2023-01-28T05:28:08.022Z,1.19
2023-01-28T05:29:07.966Z,1.20
2023-01-28T05:30:07.932Z,1.17
2023-01-28T05:31:07.877Z,1.24
2023-01-28T05:32:07.856Z,1.16
2023-01-28T05:33:07.733Z,1.22
2023-01-28T05:34:07.658Z,1.22
2023-01-28T05:35:07.604Z,1.23
2023-01-28T05:36:07.544Z,1.23
2023-01-28T05:37:07.479Z,1.26
2023-01-28T05:38:07.432Z,1.30
2023-01-28T05:39:07.359Z,1.23
2023-01-28T05:40:07.309Z,1.26
2023-01-28T05:41:07.257Z,1.22
2023-01-28T05:42:07.171Z,1.23
2023-01-28T05:43:07.161Z,1.22
2023-01-28T05:44:07.050Z,1.23
2023-01-28T05:45:06.999Z,1.17
2023-01-28T05:46:07.004Z,1.17
2023-01-28T05:47:06.892Z,1.19
2023-01-28T05:48:06.815Z,1.28
2023-01-28T05:49:06.775Z,1.23
2023-01-28T05:50:06.711Z,1.19
2023-01-28T05:51:06.649Z,1.17
2023-01-28T05:52:06.581Z,1.20
2023-01-28T05:53:06.518Z,1.17
2023-01-28T05:54:06.458Z,1.19
2023-01-28T05:55:06.446Z,1.17
2023-01-28T05:56:06.340Z,1.17
2023-01-28T05:57:06.288Z,1.17
2023-01-28T05:58:06.218Z,1.22
2023-01-28T05:59:06.183Z,1.24
2023-01-28T06:00:06.105Z,1.17
2023-01-28T06:01:06.036Z,1.19
2023-01-28T06:02:06.025Z,1.14
2023-01-28T06:03:05.909Z,1.20
2023-01-28T06:04:05.874Z,1.26
2023-01-28T06:05:05.858Z,1.14
2023-01-28T06:06:05.745Z,1.17
2023-01-28T06:07:05.707Z,1.14
2023-01-28T06:08:05.606Z,1.19
2023-01-28T06:09:05.600Z,1.17
2023-01-28T06:10:05.509Z,1.16
2023-01-28T06:11:05.436Z,1.10
2023-01-28T06:12:05.379Z,1.02
2023-01-28T06:13:05.318Z,1.06
2023-01-28T06:14:05.256Z,1.04
2023-01-28T06:15:05.211Z,0.99
2023-01-28T06:16:05.148Z,1.12
2023-01-28T06:17:05.075Z,1.14
2023-01-28T06:18:05.049Z,1.10
2023-01-28T06:19:04.946Z,1.08
2023-01-28T06:20:04.915Z,1.14
2023-01-28T06:21:04.836Z,1.05
2023-01-28T06:22:04.784Z,1.06
2023-01-28T06:23:04.725Z,0.95
2023-01-28T06:24:04.702Z,1.10
2023-01-28T06:25:04.587Z,1.12
2023-01-28T06:26:04.521Z,0.99
2023-01-28T06:27:04.485Z,1.08
2023-01-28T06:28:04.416Z,1.04
2023-01-28T06:29:04.349Z,1.06
2023-01-28T06:30:04.292Z,1.05
2023-01-28T06:31:04.280Z,1.02
2023-01-28T06:32:04.301Z,1.06
2023-01-28T06:33:04.109Z,0.98
2023-01-28T06:34:04.048Z,0.99
2023-01-28T06:35:03.976Z,1.04
2023-01-28T06:36:03.932Z,1.08
2023-01-28T06:37:03.872Z,0.99
2023-01-28T06:38:03.805Z,0.96
2023-01-28T06:39:03.781Z,1.04
2023-01-28T06:40:03.712Z,1.05
2023-01-28T06:41:03.628Z,1.02
2023-01-28T06:42:03.560Z,1.01
2023-01-28T06:43:03.505Z,0.98
2023-01-28T06:44:03.466Z,0.98
2023-01-28T06:45:03.390Z,0.92
2023-01-28T06:46:03.366Z,0.95
2023-01-28T06:47:03.254Z,0.95
2023-01-28T06:48:04.199Z,0.96
2023-01-28T06:49:03.165Z,1.01
2023-01-28T06:50:03.072Z,0.99
2023-01-28T06:51:03.027Z,0.92
2023-01-28T06:52:02.956Z,0.96
2023-01-28T06:53:02.928Z,0.96
2023-01-28T06:54:02.846Z,0.96
2023-01-28T06:55:02.788Z,0.99
2023-01-28T06:56:02.726Z,0.95
2023-01-28T06:57:02.656Z,0.95
2023-01-28T06:58:02.598Z,0.91
2023-01-28T06:59:02.536Z,0.96
2023-01-28T07:00:02.467Z,0.99
2023-01-28T07:01:02.435Z,0.92
2023-01-28T07:02:02.458Z,0.88
2023-01-28T07:03:02.319Z,0.95
2023-01-28T07:04:02.250Z,0.86
2023-01-28T07:05:02.177Z,0.88
2023-01-28T07:06:02.135Z,0.91
2023-01-28T07:07:02.084Z,0.94
2023-01-28T07:08:01.995Z,0.92
2023-01-28T07:09:01.934Z,0.88
2023-01-28T07:10:01.887Z,0.91
2023-01-28T07:11:01.817Z,0.88
2023-01-28T07:12:01.753Z,0.95
2023-01-28T07:13:01.712Z,0.83
2023-01-28T07:14:01.639Z,0.94
2023-01-28T07:15:01.591Z,0.92
2023-01-28T07:16:01.521Z,0.95
2023-01-28T07:17:01.495Z,0.94
2023-01-28T07:18:01.411Z,0.88
2023-01-28T07:19:01.339Z,0.95
2023-01-28T07:20:01.261Z,0.91
2023-01-28T07:21:01.217Z,0.91
2023-01-28T07:22:01.152Z,0.81
2023-01-28T07:23:01.094Z,0.87
2023-01-28T07:24:01.043Z,0.92
2023-01-28T07:25:00.960Z,0.96
2023-01-28T07:26:00.912Z,0.77
2023-01-28T07:27:00.851Z,0.81
2023-01-28T07:28:00.810Z,0.94
2023-01-28T07:29:00.720Z,0.92
2023-01-28T07:30:00.667Z,0.95
2023-01-28T07:31:00.836Z,0.88
2023-01-28T07:32:00.593Z,0.94
2023-01-28T07:33:00.480Z,0.91
2023-01-28T07:34:00.463Z,0.86
2023-01-28T07:35:00.375Z,0.80
2023-01-28T07:36:00.313Z,0.83
2023-01-28T07:37:00.247Z,0.77
2023-01-28T07:38:00.193Z,0.77
2023-01-28T07:39:00.130Z,0.78
2023-01-28T07:40:00.058Z,0.86
2023-01-28T07:40:59.999Z,0.83
2023-01-28T07:41:59.964Z,0.77
2023-01-28T07:42:59.882Z,0.76
2023-01-28T07:43:59.820Z,0.76
2023-01-28T07:44:59.765Z,0.78
2023-01-28T07:45:59.692Z,0.88
2023-01-28T07:46:59.680Z,0.83
2023-01-28T07:47:59.585Z,0.84
2023-01-28T07:48:59.509Z,0.78
2023-01-28T07:49:59.456Z,0.78
2023-01-28T07:50:59.413Z,0.80
2023-01-28T07:51:59.332Z,0.81
2023-01-28T07:52:59.286Z,0.83
2023-01-28T07:53:59.215Z,0.81
2023-01-28T07:54:59.159Z,0.78
2023-01-28T07:55:59.099Z,0.86
2023-01-28T07:56:59.031Z,0.86
2023-01-28T07:57:58.990Z,0.84
2023-01-28T07:58:58.914Z,0.77
2023-01-28T07:59:58.845Z,0.84
2023-01-28T08:00:58.839Z,0.77
2023-01-28T08:01:58.724Z,0.83
2023-01-28T08:02:58.675Z,0.77
2023-01-28T08:03:58.675Z,0.76
2023-01-28T08:04:58.641Z,0.76
2023-01-28T08:05:58.500Z,0.77
2023-01-28T08:06:58.424Z,0.83
2023-01-28T08:07:58.384Z,0.86
2023-01-28T08:08:58.317Z,0.78
2023-01-28T08:09:58.240Z,0.81
2023-01-28T08:10:58.205Z,0.78
2023-01-28T08:11:58.140Z,0.83
2023-01-28T08:12:58.053Z,0.80
2023-01-28T08:13:57.996Z,0.91
2023-01-28T08:14:57.947Z,0.78
2023-01-28T08:15:57.913Z,0.80
2023-01-28T08:16:57.879Z,0.81
2023-01-28T08:17:57.792Z,0.84
2023-01-28T08:18:57.706Z,0.81
2023-01-28T08:19:57.650Z,0.88
2023-01-28T08:20:57.612Z,0.83
2023-01-28T08:21:57.518Z,0.74
2023-01-28T08:22:57.479Z,0.84
2023-01-28T08:23:57.431Z,0.81
2023-01-28T08:24:57.342Z,0.77
2023-01-28T08:25:57.298Z,0.77
2023-01-28T08:26:57.323Z,0.78
2023-01-28T08:27:57.157Z,0.91
2023-01-28T08:28:57.102Z,0.77
2023-01-28T08:29:57.037Z,0.80
2023-01-28T08:30:57.010Z,0.76
2023-01-28T08:31:56.932Z,0.78
2023-01-28T08:32:56.858Z,0.80
2023-01-28T08:33:56.802Z,0.86
2023-01-28T08:34:56.736Z,0.94
2023-01-28T08:35:56.688Z,0.88
2023-01-28T08:36:56.612Z,0.92
2023-01-28T08:37:56.559Z,0.88
2023-01-28T08:38:56.508Z,0.91
2023-01-28T08:39:56.437Z,0.86
2023-01-28T08:40:56.388Z,0.94
2023-01-28T08:41:56.308Z,0.96
2023-01-28T08:42:56.278Z,0.96
2023-01-28T08:43:56.185Z,1.01
2023-01-28T08:44:56.126Z,0.99
2023-01-28T08:45:56.067Z,1.01
2023-01-28T08:46:56.034Z,1.08
2023-01-28T08:47:55.958Z,1.02
2023-01-28T08:48:55.882Z,1.13
2023-01-28T08:49:55.824Z,0.98
2023-01-28T08:50:55.761Z,1.08
2023-01-28T08:51:55.741Z,1.04
2023-01-28T08:52:55.654Z,1.10
2023-01-28T08:53:55.603Z,1.04
2023-01-28T08:54:55.524Z,1.12
2023-01-28T08:55:55.484Z,1.16
2023-01-28T08:56:55.406Z,1.16
2023-01-28T08:57:58.108Z,1.06
2023-01-28T08:58:55.300Z,1.08
2023-01-28T08:59:55.213Z,1.12
2023-01-28T09:00:55.173Z,1.05
2023-01-28T09:01:55.136Z,0.94
2023-01-28T09:02:55.041Z,0.99
2023-01-28T09:03:55.026Z,1.12
2023-01-28T09:04:54.914Z,1.04
2023-01-28T09:05:54.854Z,1.06
2023-01-28T09:06:54.799Z,0.96
2023-01-28T09:07:54.740Z,0.96
2023-01-28T09:08:54.689Z,0.98
2023-01-28T09:09:54.615Z,0.87
2023-01-28T09:10:54.554Z,0.92
2023-01-28T09:11:54.491Z,0.95
2023-01-28T09:12:54.432Z,0.91
2023-01-28T09:13:54.394Z,0.91
2023-01-28T09:14:54.310Z,0.88
2023-01-28T09:15:54.289Z,0.94
2023-01-28T09:16:54.189Z,0.98
2023-01-28T09:17:54.130Z,0.98
2023-01-28T09:18:54.078Z,0.94
2023-01-28T09:19:54.021Z,1.04
2023-01-28T09:20:53.965Z,0.99
2023-01-28T09:21:53.889Z,0.99
2023-01-28T09:22:53.828Z,1.05
2023-01-28T09:23:53.838Z,1.02
2023-01-28T09:24:53.714Z,1.10
2023-01-28T09:25:53.639Z,1.12
2023-01-28T09:26:53.592Z,1.05
2023-01-28T09:27:53.571Z,0.96
2023-01-28T09:28:53.458Z,1.12
2023-01-28T09:29:53.404Z,1.06
2023-01-28T09:30:53.399Z,1.08
2023-01-28T09:31:53.420Z,1.08
2023-01-28T09:32:53.243Z,1.08
2023-01-28T09:33:53.159Z,1.05
2023-01-28T09:34:53.118Z,0.98
2023-01-28T09:35:53.041Z,1.16
2023-01-28T09:36:52.976Z,1.14
2023-01-28T09:37:52.925Z,0.99
2023-01-28T09:38:52.871Z,1.10
2023-01-28T09:39:52.813Z,1.04
2023-01-28T09:40:52.746Z,1.16
2023-01-28T09:41:52.679Z,1.19
2023-01-28T09:42:52.634Z,1.17
2023-01-28T09:43:52.573Z,1.22
2023-01-28T09:44:52.506Z,1.24
2023-01-28T09:45:52.451Z,1.26
2023-01-28T09:46:52.435Z,1.26
2023-01-28T09:47:52.353Z,1.24
2023-01-28T09:48:52.254Z,1.17
2023-01-28T09:49:52.209Z,1.08
2023-01-28T09:50:52.128Z,1.16
2023-01-28T09:51:52.081Z,1.05
2023-01-28T09:52:52.018Z,1.17
2023-01-28T09:53:51.946Z,1.06
2023-01-28T09:54:51.909Z,1.10
2023-01-28T09:55:51.839Z,1.10
2023-01-28T09:56:51.811Z,1.14
2023-01-28T09:57:51.716Z,1.16
2023-01-28T09:58:51.668Z,1.26
2023-01-28T09:59:51.599Z,1.26
2023-01-28T10:00:51.591Z,1.22
2023-01-28T10:01:51.475Z,1.35
2023-01-28T10:02:51.431Z,1.32
2023-01-28T10:03:51.380Z,1.34
2023-01-28T10:04:51.288Z,1.35
2023-01-28T10:05:51.232Z,1.35
2023-01-28T10:06:51.265Z,1.41
2023-01-28T10:07:51.105Z,1.44
2023-01-28T10:08:51.055Z,1.44
2023-01-28T10:09:51.004Z,1.44
2023-01-28T10:10:50.935Z,1.52
2023-01-28T10:11:50.873Z,1.42
2023-01-28T10:12:50.801Z,1.48
2023-01-28T10:13:50.802Z,1.32
2023-01-28T10:14:50.695Z,1.30
2023-01-28T10:15:50.635Z,1.24
2023-01-28T10:16:50.636Z,1.30
2023-01-28T10:17:50.513Z,1.34
2023-01-28T10:18:50.447Z,1.23
2023-01-28T10:19:50.386Z,1.30
2023-01-28T10:20:50.352Z,1.37
2023-01-28T10:21:50.267Z,1.35
2023-01-28T10:22:50.204Z,1.31
2023-01-28T10:23:50.151Z,1.31
2023-01-28T10:24:50.099Z,1.30
2023-01-28T10:25:50.061Z,1.32
2023-01-28T10:26:50.088Z,1.26
2023-01-28T10:27:49.898Z,1.34
2023-01-28T10:28:49.852Z,1.24
2023-01-28T10:29:49.839Z,1.23
2023-01-28T10:30:49.806Z,1.30
2023-01-28T10:31:49.688Z,1.30
2023-01-28T10:32:49.624Z,1.22
2023-01-28T10:33:49.535Z,1.28
2023-01-28T10:34:49.495Z,1.24
2023-01-28T10:35:49.428Z,1.32
2023-01-28T10:36:49.421Z,1.31
2023-01-28T10:37:49.318Z,1.28
2023-01-28T10:38:49.243Z,1.50
2023-01-28T10:39:49.185Z,1.41
2023-01-28T10:40:49.151Z,1.52
2023-01-28T10:41:57.493Z,1.56
2023-01-28T10:42:49.005Z,1.55
2023-01-28T10:43:48.946Z,1.55
2023-01-28T10:44:48.878Z,1.63
2023-01-28T10:45:48.844Z,1.55
2023-01-28T10:46:48.838Z,1.60
2023-01-28T10:47:48.707Z,1.63
2023-01-28T10:48:48.635Z,1.58
2023-01-28T10:49:48.574Z,1.66
2023-01-28T10:50:48.516Z,1.58
2023-01-28T10:51:48.472Z,1.70
2023-01-28T10:52:48.395Z,1.77
2023-01-28T10:53:48.365Z,1.67
2023-01-28T10:54:48.299Z,1.76
2023-01-28T10:55:48.220Z,1.84
2023-01-28T10:56:48.195Z,1.80
2023-01-28T10:57:48.100Z,1.76
2023-01-28T10:58:48.042Z,1.74
2023-01-28T10:59:47.974Z,1.78
2023-01-28T11:00:47.929Z,1.77
2023-01-28T11:01:47.879Z,1.80
2023-01-28T11:02:47.802Z,1.88
2023-01-28T11:03:47.734Z,1.91
2023-01-28T11:04:47.684Z,1.89
2023-01-28T11:05:47.623Z,1.88
2023-01-28T11:06:47.582Z,1.87
2023-01-28T11:07:47.508Z,1.91
2023-01-28T11:08:47.450Z,1.89
2023-01-28T11:09:47.393Z,2.02
2023-01-28T11:10:47.324Z,1.94
2023-01-28T11:11:47.272Z,1.99
2023-01-28T11:12:47.195Z,1.89
2023-01-28T11:13:47.138Z,1.88
2023-01-28T11:14:47.097Z,1.94
2023-01-28T11:15:47.014Z,1.94
2023-01-28T11:16:46.978Z,1.94
2023-01-28T11:17:46.942Z,1.89
2023-01-28T11:18:46.842Z,1.85
2023-01-28T11:19:46.780Z,1.77
2023-01-28T11:20:46.736Z,1.77
2023-01-28T11:21:46.674Z,1.78
2023-01-28T11:22:46.601Z,1.74
2023-01-28T11:23:46.549Z,1.85
2023-01-28T11:24:46.474Z,1.74
2023-01-28T11:25:46.422Z,1.70
2023-01-28T11:26:46.381Z,1.58
2023-01-28T11:27:46.323Z,1.66
2023-01-28T11:28:46.235Z,1.62
2023-01-28T11:29:46.184Z,1.56
2023-01-28T11:30:46.168Z,1.52
2023-01-28T11:31:46.133Z,1.41
2023-01-28T11:32:46.014Z,1.42
2023-01-28T11:33:45.952Z,1.50
2023-01-28T11:34:45.890Z,1.52
2023-01-28T11:35:45.837Z,1.55
2023-01-28T11:36:45.757Z,1.53
2023-01-28T11:37:45.698Z,1.60
2023-01-28T11:38:45.638Z,1.59
2023-01-28T11:39:45.613Z,1.71
2023-01-28T11:40:45.538Z,1.76
2023-01-28T11:41:45.460Z,1.88
2023-01-28T11:42:45.440Z,1.91
2023-01-28T11:43:45.355Z,1.87
2023-01-28T11:44:45.328Z,1.80
2023-01-28T11:45:45.252Z,1.77
2023-01-28T11:46:45.160Z,1.67
2023-01-28T11:47:45.113Z,1.76
2023-01-28T11:48:45.044Z,1.67
2023-01-28T11:49:45.012Z,1.63
2023-01-28T11:50:44.934Z,1.62
2023-01-28T11:51:44.868Z,1.58
2023-01-28T11:53:04.871Z,1.56
2023-01-28T11:53:44.780Z,1.59
2023-01-28T11:54:44.684Z,1.56
2023-01-28T11:55:44.634Z,1.52
2023-01-28T11:56:44.560Z,1.52
2023-01-28T11:57:44.508Z,1.41
2023-01-28T11:58:44.446Z,1.45
2023-01-28T11:59:44.420Z,1.45
2023-01-28T12:00:44.325Z,1.48
2023-01-28T12:01:44.262Z,1.48
2023-01-28T12:02:44.273Z,1.48
2023-01-28T12:03:44.163Z,1.38
2023-01-28T12:04:44.178Z,1.40
2023-01-28T12:05:44.035Z,1.34
2023-01-28T12:06:43.957Z,1.32
2023-01-28T12:07:43.898Z,1.37
2023-01-28T12:08:43.844Z,1.28
2023-01-28T12:09:43.803Z,1.30
2023-01-28T12:10:43.746Z,1.28
2023-01-28T12:11:43.665Z,1.24
2023-01-28T12:12:43.600Z,1.22
2023-01-28T12:13:43.560Z,1.32
2023-01-28T12:14:43.477Z,1.30
2023-01-28T12:15:43.484Z,1.35
2023-01-28T12:16:43.358Z,1.28
2023-01-28T12:17:43.295Z,1.24
2023-01-28T12:18:43.240Z,1.24
2023-01-28T12:19:43.176Z,1.30
2023-01-28T12:20:43.142Z,1.30
2023-01-28T12:21:43.078Z,1.28
2023-01-28T12:22:43.019Z,1.24
2023-01-28T12:23:42.949Z,1.34
2023-01-28T12:24:42.932Z,1.37
2023-01-28T12:25:42.831Z,1.45
2023-01-28T12:26:42.772Z,1.53
2023-01-28T12:27:42.705Z,1.52
2023-01-28T12:28:42.658Z,1.49
2023-01-28T12:29:42.578Z,1.59
2023-01-28T12:30:42.544Z,1.50
2023-01-28T12:31:42.485Z,1.59
2023-01-28T12:32:42.420Z,1.63
2023-01-28T12:33:42.336Z,1.66
2023-01-28T12:34:42.285Z,1.80
2023-01-28T12:35:42.376Z,1.68
2023-01-28T12:36:42.156Z,1.71
2023-01-28T12:37:42.120Z,1.70
2023-01-28T12:38:42.056Z,1.77
2023-01-28T12:39:41.975Z,1.74
2023-01-28T12:40:41.916Z,1.60
2023-01-28T12:41:41.876Z,1.62
2023-01-28T12:42:41.810Z,1.59
2023-01-28T12:43:41.734Z,1.49
2023-01-28T12:44:41.674Z,1.56
2023-01-28T12:45:41.703Z,1.56
2023-01-28T12:46:41.576Z,1.50
2023-01-28T12:47:41.511Z,1.55
2023-01-28T12:48:41.440Z,1.50
2023-01-28T12:49:41.374Z,1.48
2023-01-28T12:50:41.319Z,1.53
2023-01-28T12:51:41.285Z,1.50
2023-01-28T12:52:41.207Z,1.34
2023-01-28T12:53:41.132Z,1.26
2023-01-28T12:54:41.076Z,1.30
2023-01-28T12:55:41.033Z,1.44
2023-01-28T12:56:40.972Z,1.52
2023-01-28T12:57:40.917Z,1.44
2023-01-28T12:58:40.855Z,1.49
2023-01-28T12:59:40.795Z,1.37
2023-01-28T13:00:40.740Z,1.40
2023-01-28T13:01:41.337Z,1.40
2023-01-28T13:02:40.673Z,1.45
2023-01-28T13:03:40.532Z,1.45
2023-01-28T13:04:40.495Z,1.53
2023-01-28T13:05:40.424Z,1.45
2023-01-28T13:06:40.368Z,1.55
2023-01-28T13:07:40.310Z,1.58
2023-01-28T13:08:40.266Z,1.62
2023-01-28T13:09:40.185Z,1.58
2023-01-28T13:10:40.129Z,1.55
2023-01-28T13:11:40.060Z,1.53
2023-01-28T13:12:40.010Z,1.45
2023-01-28T13:13:39.935Z,1.42
2023-01-28T13:14:39.872Z,1.48
2023-01-28T13:15:39.818Z,1.45
2023-01-28T13:16:39.816Z,1.49
2023-01-28T13:17:39.691Z,1.45